sensor_id;sensor_type;location;lat;lon;timestamp;pressure;altitude;pressure_sealevel;temperature;humidity
74403;BME280;62837;51.082;13.744;2023-03-19T00:01:57;100192.48;;;9.50;51.36
74403;BME280;62837;51.082;13.744;2023-03-19T00:04:44;100190.30;;;9.41;51.91
74403;BME280;62837;51.082;13.744;2023-03-19T00:07:15;100190.06;;;9.35;52.03
74403;BME280;62837;51.082;13.744;2023-03-19T00:09:46;100190.10;;;9.29;52.12
74403;BME280;62837;51.082;13.744;2023-03-19T00:12:17;100190.38;;;9.27;52.10
74403;BME280;62837;51.082;13.744;2023-03-19T00:14:48;100180.52;;;9.18;52.09
74403;BME280;62837;51.082;13.744;2023-03-19T00:17:19;100194.94;;;9.23;52.19
74403;BME280;62837;51.082;13.744;2023-03-19T00:19:50;100190.27;;;9.21;52.44
74403;BME280;62837;51.082;13.744;2023-03-19T00:22:20;100196.75;;;9.18;52.72
74403;BME280;62837;51.082;13.744;2023-03-19T00:24:51;100193.36;;;9.14;52.98
74403;BME280;62837;51.082;13.744;2023-03-19T00:27:22;100197.90;;;9.09;53.29
74403;BME280;62837;51.082;13.744;2023-03-19T00:29:52;100197.81;;;9.06;53.12
74403;BME280;62837;51.082;13.744;2023-03-19T00:32:23;100193.02;;;9.04;53.20
74403;BME280;62837;51.082;13.744;2023-03-19T00:34:55;100186.93;;;9.01;52.96
74403;BME280;62837;51.082;13.744;2023-03-19T00:37:25;100186.64;;;9.00;53.07
74403;BME280;62837;51.082;13.744;2023-03-19T00:39:57;100185.55;;;8.96;53.44
74403;BME280;62837;51.082;13.744;2023-03-19T00:42:28;100183.20;;;8.93;53.77
74403;BME280;62837;51.082;13.744;2023-03-19T00:44:58;100180.67;;;8.88;53.63
74403;BME280;62837;51.082;13.744;2023-03-19T00:47:29;100181.73;;;8.83;53.58
74403;BME280;62837;51.082;13.744;2023-03-19T00:50:00;100185.20;;;8.83;53.22
74403;BME280;62837;51.082;13.744;2023-03-19T00:52:31;100186.65;;;8.85;53.38
74403;BME280;62837;51.082;13.744;2023-03-19T00:55:03;100190.61;;;8.85;53.57
74403;BME280;62837;51.082;13.744;2023-03-19T00:57:34;100186.41;;;8.84;53.64
74403;BME280;62837;51.082;13.744;2023-03-19T01:00:07;100187.09;;;8.82;53.83
74403;BME280;62837;51.082;13.744;2023-03-19T01:02:39;100187.39;;;8.79;53.91
74403;BME280;62837;51.082;13.744;2023-03-19T01:05:10;100188.38;;;8.76;53.82
74403;BME280;62837;51.082;13.744;2023-03-19T01:07:41;100191.75;;;8.78;53.89
74403;BME280;62837;51.082;13.744;2023-03-19T01:10:13;100192.86;;;8.78;53.69
74403;BME280;62837;51.082;13.744;2023-03-19T01:12:43;100194.73;;;8.79;54.03
74403;BME280;62837;51.082;13.744;2023-03-19T01:15:15;100189.94;;;8.78;53.95
74403;BME280;62837;51.082;13.744;2023-03-19T01:17:46;100189.20;;;8.79;53.46
74403;BME280;62837;51.082;13.744;2023-03-19T01:20:17;100186.95;;;8.83;53.20
74403;BME280;62837;51.082;13.744;2023-03-19T01:22:48;100181.90;;;8.87;52.34
74403;BME280;62837;51.082;13.744;2023-03-19T01:25:20;100179.48;;;8.90;52.60
74403;BME280;62837;51.082;13.744;2023-03-19T01:28:02;100176.80;;;8.94;52.37
74403;BME280;62837;51.082;13.744;2023-03-19T01:30:33;100175.52;;;8.97;52.04
74403;BME280;62837;51.082;13.744;2023-03-19T01:33:17;100176.23;;;9.00;51.87
74403;BME280;62837;51.082;13.744;2023-03-19T01:36:00;100172.19;;;9.02;51.82
74403;BME280;62837;51.082;13.744;2023-03-19T01:38:41;100178.59;;;9.04;51.91
74403;BME280;62837;51.082;13.744;2023-03-19T01:41:16;100175.19;;;9.05;51.96
74403;BME280;62837;51.082;13.744;2023-03-19T01:43:48;100171.55;;;9.04;52.26
74403;BME280;62837;51.082;13.744;2023-03-19T01:46:38;100168.02;;;8.96;52.79
74403;BME280;62837;51.082;13.744;2023-03-19T01:49:33;100168.14;;;8.87;53.35
74403;BME280;62837;51.082;13.744;2023-03-19T01:52:16;100168.04;;;8.79;53.77
74403;BME280;62837;51.082;13.744;2023-03-19T01:55:03;100166.64;;;8.70;53.92
74403;BME280;62837;51.082;13.744;2023-03-19T01:57:44;100165.89;;;8.60;53.89
74403;BME280;62837;51.082;13.744;2023-03-19T02:00:36;100170.65;;;8.52;54.29
74403;BME280;62837;51.082;13.744;2023-03-19T02:03:07;100177.36;;;8.47;54.29
74403;BME280;62837;51.082;13.744;2023-03-19T02:05:46;100179.84;;;8.41;54.92
74403;BME280;62837;51.082;13.744;2023-03-19T02:08:20;100184.66;;;8.37;54.78
74403;BME280;62837;51.082;13.744;2023-03-19T02:10:52;100186.95;;;8.33;55.03
74403;BME280;62837;51.082;13.744;2023-03-19T02:13:24;100183.02;;;8.28;55.18
74403;BME280;62837;51.082;13.744;2023-03-19T02:15:55;100183.89;;;8.25;55.42
74403;BME280;62837;51.082;13.744;2023-03-19T02:18:27;100176.10;;;8.25;55.43
74403;BME280;62837;51.082;13.744;2023-03-19T02:21:02;100175.70;;;8.27;54.98
74403;BME280;62837;51.082;13.744;2023-03-19T02:23:38;100171.84;;;8.33;54.09
74403;BME280;62837;51.082;13.744;2023-03-19T02:26:16;100168.54;;;8.39;53.55
74403;BME280;62837;51.082;13.744;2023-03-19T02:28:51;100166.56;;;8.47;53.61
74403;BME280;62837;51.082;13.744;2023-03-19T02:31:26;100169.03;;;8.53;53.19
74403;BME280;62837;51.082;13.744;2023-03-19T02:34:00;100171.67;;;8.58;53.02
74403;BME280;62837;51.082;13.744;2023-03-19T02:36:33;100167.77;;;8.61;53.05
74403;BME280;62837;51.082;13.744;2023-03-19T02:39:09;100171.48;;;8.66;52.98
74403;BME280;62837;51.082;13.744;2023-03-19T02:41:43;100173.03;;;8.69;52.89
74403;BME280;62837;51.082;13.744;2023-03-19T02:44:15;100172.14;;;8.72;52.58
74403;BME280;62837;51.082;13.744;2023-03-19T02:46:50;100174.78;;;8.75;52.46
74403;BME280;62837;51.082;13.744;2023-03-19T02:49:21;100176.59;;;8.79;52.50
74403;BME280;62837;51.082;13.744;2023-03-19T02:51:52;100175.53;;;8.81;52.59
74403;BME280;62837;51.082;13.744;2023-03-19T02:54:24;100173.71;;;8.81;52.81
74403;BME280;62837;51.082;13.744;2023-03-19T02:56:54;100171.69;;;8.81;52.36
74403;BME280;62837;51.082;13.744;2023-03-19T02:59:25;100171.46;;;8.78;53.21
74403;BME280;62837;51.082;13.744;2023-03-19T03:01:56;100170.51;;;8.76;53.12
74403;BME280;62837;51.082;13.744;2023-03-19T03:04:27;100169.08;;;8.72;53.15
74403;BME280;62837;51.082;13.744;2023-03-19T03:06:57;100165.49;;;8.67;53.25
74403;BME280;62837;51.082;13.744;2023-03-19T03:09:29;100168.45;;;8.62;53.62
74403;BME280;62837;51.082;13.744;2023-03-19T03:12:00;100181.16;;;8.55;54.24
74403;BME280;62837;51.082;13.744;2023-03-19T03:14:31;100188.55;;;8.47;54.75
74403;BME280;62837;51.082;13.744;2023-03-19T03:17:03;100194.64;;;8.41;55.15
74403;BME280;62837;51.082;13.744;2023-03-19T03:19:34;100198.86;;;8.28;55.41
74403;BME280;62837;51.082;13.744;2023-03-19T03:22:05;100212.61;;;8.22;55.64
74403;BME280;62837;51.082;13.744;2023-03-19T03:24:36;100219.05;;;8.15;55.96
74403;BME280;62837;51.082;13.744;2023-03-19T03:27:07;100214.62;;;8.12;55.85
74403;BME280;62837;51.082;13.744;2023-03-19T03:29:38;100213.43;;;8.09;55.93
74403;BME280;62837;51.082;13.744;2023-03-19T03:32:10;100207.58;;;8.08;55.93
74403;BME280;62837;51.082;13.744;2023-03-19T03:34:41;100200.71;;;8.05;55.95
74403;BME280;62837;51.082;13.744;2023-03-19T03:37:12;100209.04;;;8.06;55.35
74403;BME280;62837;51.082;13.744;2023-03-19T03:39:42;100213.40;;;8.05;55.38
74403;BME280;62837;51.082;13.744;2023-03-19T03:42:13;100214.83;;;8.03;55.86
74403;BME280;62837;51.082;13.744;2023-03-19T03:44:44;100206.73;;;8.00;56.02
74403;BME280;62837;51.082;13.744;2023-03-19T03:47:15;100209.21;;;8.01;55.95
74403;BME280;62837;51.082;13.744;2023-03-19T03:49:47;100214.55;;;8.01;55.87
74403;BME280;62837;51.082;13.744;2023-03-19T03:52:18;100213.38;;;8.01;56.04
74403;BME280;62837;51.082;13.744;2023-03-19T03:54:48;100209.16;;;8.01;55.91
74403;BME280;62837;51.082;13.744;2023-03-19T03:57:19;100206.44;;;8.04;55.14
74403;BME280;62837;51.082;13.744;2023-03-19T03:59:50;100204.11;;;8.09;54.46
74403;BME280;62837;51.082;13.744;2023-03-19T04:02:21;100209.58;;;8.15;53.93
74403;BME280;62837;51.082;13.744;2023-03-19T04:04:52;100207.41;;;8.19;53.59
74403;BME280;62837;51.082;13.744;2023-03-19T04:07:23;100206.82;;;8.24;53.22
74403;BME280;62837;51.082;13.744;2023-03-19T04:09:58;100210.29;;;8.28;53.09
74403;BME280;62837;51.082;13.744;2023-03-19T04:12:29;100208.27;;;8.30;53.16
74403;BME280;62837;51.082;13.744;2023-03-19T04:15:00;100209.46;;;8.33;52.71
74403;BME280;62837;51.082;13.744;2023-03-19T04:17:31;100206.21;;;8.31;53.26
74403;BME280;62837;51.082;13.744;2023-03-19T04:20:03;100206.86;;;8.26;53.69
74403;BME280;62837;51.082;13.744;2023-03-19T04:22:34;100202.52;;;8.22;53.45
74403;BME280;62837;51.082;13.744;2023-03-19T04:25:07;100197.54;;;8.22;53.23
74403;BME280;62837;51.082;13.744;2023-03-19T04:27:38;100196.56;;;8.23;52.99
74403;BME280;62837;51.082;13.744;2023-03-19T04:30:11;100199.68;;;8.26;52.93
74403;BME280;62837;51.082;13.744;2023-03-19T04:32:42;100198.05;;;8.28;52.69
74403;BME280;62837;51.082;13.744;2023-03-19T04:35:16;100193.73;;;8.27;52.82
74403;BME280;62837;51.082;13.744;2023-03-19T04:37:47;100200.51;;;8.26;53.59
74403;BME280;62837;51.082;13.744;2023-03-19T04:40:19;100197.63;;;8.25;53.70
74403;BME280;62837;51.082;13.744;2023-03-19T04:42:50;100200.06;;;8.26;53.66
74403;BME280;62837;51.082;13.744;2023-03-19T04:45:33;100201.39;;;8.26;53.66
74403;BME280;62837;51.082;13.744;2023-03-19T04:48:05;100199.38;;;8.27;53.23
74403;BME280;62837;51.082;13.744;2023-03-19T04:50:38;100200.64;;;8.28;53.31
74403;BME280;62837;51.082;13.744;2023-03-19T04:53:09;100199.36;;;8.31;53.16
74403;BME280;62837;51.082;13.744;2023-03-19T04:55:41;100200.96;;;8.32;53.02
74403;BME280;62837;51.082;13.744;2023-03-19T04:58:17;100201.86;;;8.30;53.91
74403;BME280;62837;51.082;13.744;2023-03-19T05:00:53;100202.91;;;8.26;54.07
74403;BME280;62837;51.082;13.744;2023-03-19T05:03:30;100200.70;;;8.21;54.51
74403;BME280;62837;51.082;13.744;2023-03-19T05:06:01;100204.75;;;8.18;54.59
74403;BME280;62837;51.082;13.744;2023-03-19T05:08:32;100206.66;;;8.18;54.64
74403;BME280;62837;51.082;13.744;2023-03-19T05:11:03;100204.60;;;8.15;55.04
74403;BME280;62837;51.082;13.744;2023-03-19T05:13:43;100206.63;;;8.13;54.92
74403;BME280;62837;51.082;13.744;2023-03-19T05:16:14;100207.36;;;8.10;54.56
74403;BME280;62837;51.082;13.744;2023-03-19T05:18:45;100211.27;;;8.09;54.46
74403;BME280;62837;51.082;13.744;2023-03-19T05:21:17;100211.04;;;8.10;54.20
74403;BME280;62837;51.082;13.744;2023-03-19T05:23:49;100209.94;;;8.10;54.77
74403;BME280;62837;51.082;13.744;2023-03-19T05:26:23;100210.43;;;8.07;55.09
74403;BME280;62837;51.082;13.744;2023-03-19T05:29:12;100213.89;;;8.02;54.94
74403;BME280;62837;51.082;13.744;2023-03-19T05:31:55;100214.77;;;8.02;54.76
74403;BME280;62837;51.082;13.744;2023-03-19T05:34:26;100211.62;;;8.04;54.57
74403;BME280;62837;51.082;13.744;2023-03-19T05:36:57;100211.11;;;8.06;54.71
74403;BME280;62837;51.082;13.744;2023-03-19T05:39:28;100197.73;;;7.98;54.08
74403;BME280;62837;51.082;13.744;2023-03-19T05:42:02;100202.59;;;8.04;54.40
74403;BME280;62837;51.082;13.744;2023-03-19T05:44:34;100205.30;;;8.12;54.28
74403;BME280;62837;51.082;13.744;2023-03-19T05:47:31;100207.67;;;8.15;53.91
74403;BME280;62837;51.082;13.744;2023-03-19T05:50:04;100213.48;;;8.16;54.24
74403;BME280;62837;51.082;13.744;2023-03-19T05:52:36;100219.96;;;8.17;54.74
74403;BME280;62837;51.082;13.744;2023-03-19T05:55:08;100223.02;;;8.13;55.34
74403;BME280;62837;51.082;13.744;2023-03-19T05:57:43;100230.37;;;8.08;55.50
74403;BME280;62837;51.082;13.744;2023-03-19T06:00:27;100229.09;;;8.04;55.68
74403;BME280;62837;51.082;13.744;2023-03-19T06:02:58;100227.25;;;8.03;55.59
74403;BME280;62837;51.082;13.744;2023-03-19T06:05:51;100231.30;;;8.02;55.52
74403;BME280;62837;51.082;13.744;2023-03-19T06:08:34;100239.39;;;8.04;55.83
74403;BME280;62837;51.082;13.744;2023-03-19T06:11:25;100236.61;;;8.01;56.74
74403;BME280;62837;51.082;13.744;2023-03-19T06:14:16;100241.27;;;8.02;56.29
74403;BME280;62837;51.082;13.744;2023-03-19T06:16:55;100223.91;;;7.99;56.58
74403;BME280;62837;51.082;13.744;2023-03-19T06:19:26;100240.16;;;8.13;56.77
74403;BME280;62837;51.082;13.744;2023-03-19T06:21:57;100240.41;;;8.18;56.72
74403;BME280;62837;51.082;13.744;2023-03-19T06:24:28;100237.09;;;8.23;57.00
74403;BME280;62837;51.082;13.744;2023-03-19T06:26:59;100229.77;;;8.27;56.73
74403;BME280;62837;51.082;13.744;2023-03-19T06:29:31;100224.61;;;8.34;56.66
74403;BME280;62837;51.082;13.744;2023-03-19T06:32:11;100228.27;;;8.43;55.95
74403;BME280;62837;51.082;13.744;2023-03-19T06:34:43;100229.94;;;8.58;55.27
74403;BME280;62837;51.082;13.744;2023-03-19T06:37:15;100230.17;;;8.80;54.13
74403;BME280;62837;51.082;13.744;2023-03-19T06:39:46;100228.14;;;9.03;53.40
74403;BME280;62837;51.082;13.744;2023-03-19T06:42:18;100230.91;;;9.28;53.36
74403;BME280;62837;51.082;13.744;2023-03-19T06:44:49;100231.70;;;9.52;52.49
74403;BME280;62837;51.082;13.744;2023-03-19T06:47:22;100231.70;;;9.71;52.62
74403;BME280;62837;51.082;13.744;2023-03-19T06:49:52;100227.70;;;9.92;52.08
74403;BME280;62837;51.082;13.744;2023-03-19T06:52:23;100231.14;;;10.16;50.73
74403;BME280;62837;51.082;13.744;2023-03-19T06:54:54;100230.59;;;10.36;49.74
74403;BME280;62837;51.082;13.744;2023-03-19T06:57:25;100230.14;;;10.55;49.19
74403;BME280;62837;51.082;13.744;2023-03-19T06:59:56;100231.65;;;10.65;48.37
74403;BME280;62837;51.082;13.744;2023-03-19T07:02:26;100234.72;;;10.79;48.15
74403;BME280;62837;51.082;13.744;2023-03-19T07:04:57;100242.04;;;10.94;47.57
74403;BME280;62837;51.082;13.744;2023-03-19T07:07:28;100236.05;;;11.12;47.35
74403;BME280;62837;51.082;13.744;2023-03-19T07:10:00;100243.48;;;11.34;46.57
74403;BME280;62837;51.082;13.744;2023-03-19T07:12:30;100248.03;;;11.52;45.98
74403;BME280;62837;51.082;13.744;2023-03-19T07:15:01;100251.45;;;11.68;45.35
74403;BME280;62837;51.082;13.744;2023-03-19T07:17:33;100247.20;;;11.73;44.38
74403;BME280;62837;51.082;13.744;2023-03-19T07:20:04;100254.93;;;11.71;44.04
74403;BME280;62837;51.082;13.744;2023-03-19T07:22:35;100257.67;;;11.75;43.75
74403;BME280;62837;51.082;13.744;2023-03-19T07:25:07;100257.14;;;11.78;43.12
74403;BME280;62837;51.082;13.744;2023-03-19T07:27:37;100269.02;;;11.84;43.09
74403;BME280;62837;51.082;13.744;2023-03-19T07:30:10;100268.95;;;11.85;42.78
74403;BME280;62837;51.082;13.744;2023-03-19T07:32:41;100270.33;;;11.83;42.90
74403;BME280;62837;51.082;13.744;2023-03-19T07:35:12;100264.73;;;11.90;42.83
74403;BME280;62837;51.082;13.744;2023-03-19T07:37:43;100264.91;;;11.96;42.70
74403;BME280;62837;51.082;13.744;2023-03-19T07:42:45;100256.90;;;11.89;42.23
74403;BME280;62837;51.082;13.744;2023-03-19T07:45:15;100260.63;;;11.84;42.47
74403;BME280;62837;51.082;13.744;2023-03-19T07:47:46;100258.56;;;11.90;42.49
74403;BME280;62837;51.082;13.744;2023-03-19T07:50:21;100257.48;;;11.99;42.41
74403;BME280;62837;51.082;13.744;2023-03-19T07:52:51;100253.81;;;12.04;42.35
74403;BME280;62837;51.082;13.744;2023-03-19T07:55:22;100262.32;;;12.16;42.32
74403;BME280;62837;51.082;13.744;2023-03-19T07:57:54;100258.70;;;12.25;42.18
74403;BME280;62837;51.082;13.744;2023-03-19T08:00:25;100254.35;;;12.32;41.94
74403;BME280;62837;51.082;13.744;2023-03-19T08:02:55;100256.61;;;12.41;41.71
74403;BME280;62837;51.082;13.744;2023-03-19T08:05:26;100253.77;;;12.50;41.41
74403;BME280;62837;51.082;13.744;2023-03-19T08:07:57;100252.39;;;12.56;41.47
74403;BME280;62837;51.082;13.744;2023-03-19T08:10:28;100249.57;;;12.64;41.46
74403;BME280;62837;51.082;13.744;2023-03-19T08:12:59;100248.86;;;12.72;41.19
74403;BME280;62837;51.082;13.744;2023-03-19T08:15:30;100252.82;;;12.79;41.00
74403;BME280;62837;51.082;13.744;2023-03-19T08:18:03;100254.25;;;12.84;40.78
74403;BME280;62837;51.082;13.744;2023-03-19T08:20:34;100253.81;;;12.92;40.71
74403;BME280;62837;51.082;13.744;2023-03-19T08:23:05;100258.36;;;12.99;40.95
74403;BME280;62837;51.082;13.744;2023-03-19T08:25:36;100257.38;;;13.07;40.78
74403;BME280;62837;51.082;13.744;2023-03-19T08:28:07;100258.74;;;13.10;40.84
74403;BME280;62837;51.082;13.744;2023-03-19T08:30:38;100255.91;;;13.14;40.44
74403;BME280;62837;51.082;13.744;2023-03-19T08:33:09;100256.77;;;13.18;40.18
74403;BME280;62837;51.082;13.744;2023-03-19T08:35:40;100249.85;;;13.28;40.20
74403;BME280;62837;51.082;13.744;2023-03-19T08:38:10;100252.17;;;13.42;40.40
74403;BME280;62837;51.082;13.744;2023-03-19T08:40:41;100255.35;;;13.54;39.86
74403;BME280;62837;51.082;13.744;2023-03-19T08:43:12;100256.36;;;13.61;39.80
74403;BME280;62837;51.082;13.744;2023-03-19T08:45:43;100263.23;;;13.63;39.89
74403;BME280;62837;51.082;13.744;2023-03-19T08:48:13;100261.00;;;13.64;39.55
74403;BME280;62837;51.082;13.744;2023-03-19T08:50:44;100261.63;;;13.61;39.04
74403;BME280;62837;51.082;13.744;2023-03-19T08:53:15;100259.04;;;13.60;39.44
74403;BME280;62837;51.082;13.744;2023-03-19T08:55:51;100262.83;;;13.61;39.35
74403;BME280;62837;51.082;13.744;2023-03-19T08:58:23;100259.55;;;13.66;39.30
74403;BME280;62837;51.082;13.744;2023-03-19T09:00:59;100258.42;;;13.70;39.01
74403;BME280;62837;51.082;13.744;2023-03-19T09:03:30;100263.10;;;13.76;38.87
74403;BME280;62837;51.082;13.744;2023-03-19T09:06:02;100264.26;;;13.77;38.57
74403;BME280;62837;51.082;13.744;2023-03-19T09:08:33;100261.77;;;13.77;38.78
74403;BME280;62837;51.082;13.744;2023-03-19T09:11:06;100262.30;;;13.80;38.65
74403;BME280;62837;51.082;13.744;2023-03-19T09:13:40;100266.23;;;13.81;38.64
74403;BME280;62837;51.082;13.744;2023-03-19T09:16:11;100267.42;;;13.88;39.00
74403;BME280;62837;51.082;13.744;2023-03-19T09:18:41;100267.45;;;13.93;38.78
74403;BME280;62837;51.082;13.744;2023-03-19T09:21:12;100267.77;;;13.95;38.63
74403;BME280;62837;51.082;13.744;2023-03-19T09:23:43;100268.86;;;13.96;38.86
74403;BME280;62837;51.082;13.744;2023-03-19T09:26:14;100267.69;;;14.00;38.96
74403;BME280;62837;51.082;13.744;2023-03-19T09:28:45;100270.38;;;14.03;38.68
74403;BME280;62837;51.082;13.744;2023-03-19T09:31:16;100269.89;;;14.03;38.31
74403;BME280;62837;51.082;13.744;2023-03-19T09:33:46;100268.61;;;14.02;38.48
74403;BME280;62837;51.082;13.744;2023-03-19T09:36:17;100273.67;;;13.99;38.38
74403;BME280;62837;51.082;13.744;2023-03-19T09:38:48;100273.07;;;13.98;38.56
74403;BME280;62837;51.082;13.744;2023-03-19T09:41:28;100270.80;;;13.98;38.72
74403;BME280;62837;51.082;13.744;2023-03-19T09:44:03;100272.14;;;14.03;38.78
74403;BME280;62837;51.082;13.744;2023-03-19T09:46:39;100267.91;;;14.10;38.75
74403;BME280;62837;51.082;13.744;2023-03-19T09:49:19;100264.00;;;14.16;38.82
74403;BME280;62837;51.082;13.744;2023-03-19T09:51:54;100261.81;;;14.21;38.79
74403;BME280;62837;51.082;13.744;2023-03-19T09:54:34;100255.02;;;14.28;38.72
74403;BME280;62837;51.082;13.744;2023-03-19T09:57:06;100255.09;;;14.34;38.85
74403;BME280;62837;51.082;13.744;2023-03-19T09:59:36;100252.38;;;14.40;38.83
74403;BME280;62837;51.082;13.744;2023-03-19T10:02:28;100249.09;;;14.41;38.78
74403;BME280;62837;51.082;13.744;2023-03-19T10:05:08;100248.76;;;14.43;38.88
74403;BME280;62837;51.082;13.744;2023-03-19T10:10:48;100252.63;;;14.49;38.73
74403;BME280;62837;51.082;13.744;2023-03-19T10:13:29;100245.94;;;14.56;38.62
74403;BME280;62837;51.082;13.744;2023-03-19T10:16:02;100247.70;;;14.64;38.76
74403;BME280;62837;51.082;13.744;2023-03-19T10:18:35;100243.60;;;14.77;38.43
74403;BME280;62837;51.082;13.744;2023-03-19T10:21:10;100238.47;;;14.87;38.40
74403;BME280;62837;51.082;13.744;2023-03-19T10:23:45;100240.23;;;14.95;38.43
74403;BME280;62837;51.082;13.744;2023-03-19T10:26:19;100238.90;;;15.05;38.39
74403;BME280;62837;51.082;13.744;2023-03-19T10:28:58;100239.94;;;15.18;38.32
74403;BME280;62837;51.082;13.744;2023-03-19T10:31:41;100238.65;;;15.30;38.23
74403;BME280;62837;51.082;13.744;2023-03-19T10:34:26;100231.52;;;15.44;38.70
74403;BME280;62837;51.082;13.744;2023-03-19T10:37:02;100235.27;;;15.64;38.07
74403;BME280;62837;51.082;13.744;2023-03-19T10:39:38;100238.79;;;15.76;37.93
74403;BME280;62837;51.082;13.744;2023-03-19T10:42:30;100234.46;;;15.79;37.59
74403;BME280;62837;51.082;13.744;2023-03-19T10:47:56;100233.74;;;15.76;38.25
74403;BME280;62837;51.082;13.744;2023-03-19T10:50:33;100234.77;;;15.74;37.98
74403;BME280;62837;51.082;13.744;2023-03-19T10:53:21;100232.50;;;15.78;38.23
74403;BME280;62837;51.082;13.744;2023-03-19T10:55:59;100238.08;;;15.88;38.56
74403;BME280;62837;51.082;13.744;2023-03-19T10:58:31;100225.20;;;16.01;38.35
74403;BME280;62837;51.082;13.744;2023-03-19T11:01:06;100225.34;;;16.06;38.00
74403;BME280;62837;51.082;13.744;2023-03-19T11:03:39;100225.52;;;15.99;37.65
74403;BME280;62837;51.082;13.744;2023-03-19T11:06:30;100224.17;;;15.90;37.80
74403;BME280;62837;51.082;13.744;2023-03-19T11:09:11;100229.17;;;15.82;38.07
74403;BME280;62837;51.082;13.744;2023-03-19T11:11:46;100228.07;;;15.78;38.03
74403;BME280;62837;51.082;13.744;2023-03-19T11:14:23;100228.42;;;15.75;38.03
74403;BME280;62837;51.082;13.744;2023-03-19T11:17:02;100229.75;;;15.75;37.97
74403;BME280;62837;51.082;13.744;2023-03-19T11:19:40;100219.98;;;15.77;38.38
74403;BME280;62837;51.082;13.744;2023-03-19T11:22:16;100220.80;;;15.81;38.32
74403;BME280;62837;51.082;13.744;2023-03-19T11:24:52;100220.64;;;15.82;38.04
74403;BME280;62837;51.082;13.744;2023-03-19T11:27:32;100220.98;;;15.81;38.13
74403;BME280;62837;51.082;13.744;2023-03-19T11:30:12;100216.29;;;15.79;38.16
74403;BME280;62837;51.082;13.744;2023-03-19T11:35:45;100213.04;;;15.74;38.50
74403;BME280;62837;51.082;13.744;2023-03-19T11:38:27;100213.88;;;15.73;38.36
74403;BME280;62837;51.082;13.744;2023-03-19T11:41:10;100215.36;;;15.78;38.75
74403;BME280;62837;51.082;13.744;2023-03-19T11:43:54;100207.75;;;15.88;39.02
74403;BME280;62837;51.082;13.744;2023-03-19T11:46:44;100204.90;;;15.96;38.72
74403;BME280;62837;51.082;13.744;2023-03-19T11:49:57;100204.22;;;16.10;39.09
74403;BME280;62837;51.082;13.744;2023-03-19T11:52:38;100202.12;;;16.26;39.14
74403;BME280;62837;51.082;13.744;2023-03-19T11:55:18;100199.02;;;16.39;38.76
74403;BME280;62837;51.082;13.744;2023-03-19T11:58:04;100201.28;;;16.51;39.05
74403;BME280;62837;51.082;13.744;2023-03-19T12:00:42;100202.67;;;16.59;38.41
74403;BME280;62837;51.082;13.744;2023-03-19T12:06:29;100195.89;;;16.69;37.93
74403;BME280;62837;51.082;13.744;2023-03-19T12:09:06;100195.45;;;16.69;37.82
74403;BME280;62837;51.082;13.744;2023-03-19T12:11:45;100193.75;;;16.71;38.12
74403;BME280;62837;51.082;13.744;2023-03-19T12:14:26;100190.48;;;16.73;38.27
74403;BME280;62837;51.082;13.744;2023-03-19T12:17:14;100192.62;;;16.75;38.20
74403;BME280;62837;51.082;13.744;2023-03-19T12:20:15;100191.82;;;16.77;38.23
74403;BME280;62837;51.082;13.744;2023-03-19T12:22:57;100187.00;;;16.79;38.38
74403;BME280;62837;51.082;13.744;2023-03-19T12:25:42;100189.19;;;16.82;38.68
74403;BME280;62837;51.082;13.744;2023-03-19T12:28:20;100188.41;;;16.82;38.52
74403;BME280;62837;51.082;13.744;2023-03-19T12:30:56;100186.70;;;16.81;38.71
74403;BME280;62837;51.082;13.744;2023-03-19T12:33:38;100188.42;;;16.80;38.74
74403;BME280;62837;51.082;13.744;2023-03-19T12:36:16;100188.94;;;16.79;38.75
74403;BME280;62837;51.082;13.744;2023-03-19T12:38:52;100190.56;;;16.78;38.95
74403;BME280;62837;51.082;13.744;2023-03-19T12:41:25;100188.05;;;16.76;38.88
74403;BME280;62837;51.082;13.744;2023-03-19T12:43:59;100187.07;;;16.72;39.36
74403;BME280;62837;51.082;13.744;2023-03-19T12:46:33;100182.29;;;16.69;39.43
74403;BME280;62837;51.082;13.744;2023-03-19T12:49:09;100180.62;;;16.64;38.89
74403;BME280;62837;51.082;13.744;2023-03-19T12:51:43;100184.23;;;16.59;38.88
74403;BME280;62837;51.082;13.744;2023-03-19T12:54:18;100185.48;;;16.53;38.77
74403;BME280;62837;51.082;13.744;2023-03-19T12:56:55;100183.22;;;16.49;38.65
74403;BME280;62837;51.082;13.744;2023-03-19T12:59:34;100188.88;;;16.46;38.76
74403;BME280;62837;51.082;13.744;2023-03-19T13:02:15;100191.84;;;16.42;39.06
74403;BME280;62837;51.082;13.744;2023-03-19T13:04:52;100189.89;;;16.39;38.92
74403;BME280;62837;51.082;13.744;2023-03-19T13:07:30;100190.58;;;16.33;38.69
74403;BME280;62837;51.082;13.744;2023-03-19T13:10:02;100188.49;;;16.29;38.73
74403;BME280;62837;51.082;13.744;2023-03-19T13:12:36;100190.48;;;16.25;38.60
74403;BME280;62837;51.082;13.744;2023-03-19T13:15:10;100195.43;;;16.22;38.63
74403;BME280;62837;51.082;13.744;2023-03-19T13:17:53;100193.33;;;16.19;38.53
74403;BME280;62837;51.082;13.744;2023-03-19T13:20:34;100196.60;;;16.14;38.53
74403;BME280;62837;51.082;13.744;2023-03-19T13:23:12;100195.83;;;16.09;38.62
74403;BME280;62837;51.082;13.744;2023-03-19T13:25:47;100194.61;;;16.06;38.73
74403;BME280;62837;51.082;13.744;2023-03-19T13:28:25;100193.84;;;16.03;38.73
74403;BME280;62837;51.082;13.744;2023-03-19T13:31:02;100194.33;;;16.00;38.96
74403;BME280;62837;51.082;13.744;2023-03-19T13:33:35;100193.96;;;15.98;38.84
74403;BME280;62837;51.082;13.744;2023-03-19T13:36:09;100194.42;;;15.95;39.08
74403;BME280;62837;51.082;13.744;2023-03-19T13:38:45;100191.66;;;15.95;39.25